createdAt,value
2022-10-10T00:00:18.777Z,46.70
2022-10-10T00:03:07.239Z,46.80
2022-10-10T00:05:54.574Z,46.80
2022-10-10T00:08:42.840Z,46.80
2022-10-10T00:11:30.506Z,46.80
2022-10-10T00:14:18.000Z,46.70
2022-10-10T00:17:06.545Z,46.80
2022-10-10T00:19:53.533Z,46.80
2022-10-10T00:22:40.882Z,46.60
2022-10-10T00:25:29.066Z,46.70
2022-10-10T00:28:16.839Z,46.60
2022-10-10T00:31:03.950Z,46.70
2022-10-10T00:33:52.468Z,46.70
2022-10-10T00:36:39.840Z,46.50
2022-10-10T00:39:26.991Z,46.60
2022-10-10T00:42:15.257Z,46.50
2022-10-10T00:45:27.906Z,46.60
2022-10-10T00:48:19.249Z,46.70
2022-10-10T00:51:11.531Z,46.70
2022-10-10T00:54:03.297Z,46.80
2022-10-10T00:56:55.585Z,46.70
2022-10-10T00:59:44.917Z,46.80
2022-10-10T01:02:32.363Z,46.80
2022-10-10T01:05:19.648Z,46.70
2022-10-10T01:08:08.859Z,46.80
2022-10-10T01:11:14.012Z,46.90
2022-10-10T01:14:12.681Z,47.00
2022-10-10T01:17:07.861Z,46.90
2022-10-10T01:20:43.194Z,46.80
2022-10-10T01:24:29.145Z,47.00
2022-10-10T01:27:35.112Z,46.90
2022-10-10T01:30:25.734Z,46.90
2022-10-10T01:33:18.968Z,46.80
2022-10-10T01:36:19.449Z,46.90
2022-10-10T01:39:15.683Z,46.50
2022-10-10T01:42:09.444Z,46.70
2022-10-10T01:44:56.964Z,46.50
2022-10-10T01:47:45.489Z,46.60
2022-10-10T01:50:43.269Z,46.70
2022-10-10T01:53:42.794Z,46.70
2022-10-10T01:56:40.882Z,46.80
2022-10-10T01:59:45.541Z,46.90
2022-10-10T02:02:43.229Z,46.80
2022-10-10T02:05:40.805Z,47.00
2022-10-10T02:08:34.601Z,46.70
2022-10-10T02:11:22.075Z,46.80
2022-10-10T02:14:15.562Z,46.80
2022-10-10T02:17:04.523Z,46.70
2022-10-10T02:19:56.791Z,46.80
2022-10-10T02:22:47.592Z,46.90
2022-10-10T02:25:40.515Z,46.70
2022-10-10T02:28:35.282Z,46.80
2022-10-10T02:31:32.465Z,46.90
2022-10-10T02:34:24.532Z,47.00
2022-10-10T02:37:15.316Z,46.90
2022-10-10T02:40:08.480Z,47.00
2022-10-10T02:42:57.197Z,47.00
2022-10-10T02:45:44.697Z,47.00
2022-10-10T02:48:32.219Z,47.00
2022-10-10T02:51:19.841Z,46.90
2022-10-10T02:54:07.235Z,46.70
2022-10-10T02:56:55.643Z,46.50
2022-10-10T02:59:43.173Z,46.70
2022-10-10T03:02:30.422Z,46.60
2022-10-10T03:05:17.960Z,46.60
2022-10-10T03:08:09.226Z,46.60
2022-10-10T03:11:00.936Z,46.60
2022-10-10T03:13:49.375Z,46.70
2022-10-10T03:16:36.960Z,46.60
2022-10-10T03:19:24.342Z,46.70
2022-10-10T03:22:11.575Z,46.80
2022-10-10T03:24:58.658Z,46.80
2022-10-10T03:27:46.078Z,46.80
2022-10-10T03:30:34.441Z,46.80
2022-10-10T03:33:21.949Z,46.80
2022-10-10T03:36:09.168Z,46.70
2022-10-10T03:38:56.698Z,46.60
2022-10-10T03:41:44.004Z,46.50
2022-10-10T03:44:31.605Z,46.60
2022-10-10T03:47:20.358Z,46.40
2022-10-10T03:50:09.178Z,46.50
2022-10-10T03:52:56.631Z,46.60
2022-10-10T03:55:44.763Z,46.60
2022-10-10T03:58:31.944Z,46.60
2022-10-10T04:01:19.412Z,46.50
2022-10-10T04:04:07.812Z,46.30
2022-10-10T04:06:55.363Z,46.60
2022-10-10T04:09:42.553Z,46.50
2022-10-10T04:12:30.061Z,46.60
2022-10-10T04:15:17.358Z,46.60
2022-10-10T04:18:04.771Z,46.70
2022-10-10T04:20:54.340Z,46.50
2022-10-10T04:23:41.750Z,46.50
2022-10-10T04:26:28.880Z,46.70
2022-10-10T04:29:16.326Z,46.70
2022-10-10T04:32:03.464Z,46.50
2022-10-10T04:34:50.994Z,46.60
2022-10-10T04:37:39.516Z,46.50
2022-10-10T04:40:27.190Z,46.70
2022-10-10T04:43:14.570Z,46.70
2022-10-10T04:46:01.651Z,46.70
2022-10-10T04:48:48.882Z,46.70
2022-10-10T04:51:36.083Z,46.80
2022-10-10T04:54:24.727Z,46.90
2022-10-10T04:57:12.057Z,46.80
2022-10-10T04:59:59.493Z,46.90
2022-10-10T05:02:46.879Z,46.80
2022-10-10T05:05:34.223Z,46.80
2022-10-10T05:08:22.232Z,46.90
2022-10-10T05:11:10.807Z,46.80
2022-10-10T05:13:58.220Z,46.90
2022-10-10T05:16:45.285Z,47.00
2022-10-10T05:19:32.448Z,46.80
2022-10-10T05:22:19.761Z,46.90
2022-10-10T05:25:08.336Z,46.70
2022-10-10T05:27:57.223Z,46.80
2022-10-10T05:30:44.717Z,46.90
2022-10-10T05:33:32.004Z,46.90
2022-10-10T05:36:19.452Z,47.50
2022-10-10T05:39:06.503Z,46.90
2022-10-10T05:41:53.542Z,46.90
2022-10-10T05:44:42.295Z,46.80
2022-10-10T05:47:29.619Z,46.60
2022-10-10T05:50:31.646Z,46.50
2022-10-10T05:53:20.047Z,47.30
2022-10-10T05:56:08.324Z,46.30
2022-10-10T05:58:55.691Z,46.40
2022-10-10T06:01:44.504Z,46.10
2022-10-10T06:04:13.115Z,46.30
2022-10-10T06:06:42.089Z,46.50
2022-10-10T06:09:10.801Z,46.50
2022-10-10T06:11:39.392Z,46.50
2022-10-10T06:14:08.317Z,46.70
2022-10-10T06:16:39.635Z,46.60
2022-10-10T06:19:14.653Z,47.10
2022-10-10T06:21:43.955Z,46.60
2022-10-10T06:24:12.874Z,46.60
2022-10-10T06:26:41.554Z,46.30
2022-10-10T06:29:10.185Z,46.50
2022-10-10T06:31:39.579Z,46.60
2022-10-10T06:34:09.670Z,46.70
2022-10-10T06:36:38.491Z,46.60
2022-10-10T06:39:07.171Z,46.70
2022-10-10T06:41:36.052Z,46.80
2022-10-10T06:44:12.116Z,46.90
2022-10-10T06:46:40.722Z,46.90
2022-10-10T06:49:10.985Z,47.10
2022-10-10T06:51:40.224Z,47.10
2022-10-10T06:54:08.969Z,47.10
2022-10-10T06:56:37.812Z,47.10
2022-10-10T06:59:06.545Z,47.20
2022-10-10T07:01:35.275Z,47.30
2022-10-10T07:04:04.041Z,47.40
2022-10-10T07:06:35.125Z,47.40
2022-10-10T07:09:04.207Z,47.60
2022-10-10T07:11:32.972Z,47.60
2022-10-10T07:14:01.618Z,47.70
2022-10-10T07:16:30.356Z,47.70
2022-10-10T07:18:58.940Z,47.80
2022-10-10T07:21:27.816Z,47.90
2022-10-10T07:23:57.902Z,48.00
2022-10-10T07:26:30.973Z,48.10
2022-10-10T07:28:59.695Z,48.00
2022-10-10T07:31:28.361Z,48.00
2022-10-10T07:33:57.042Z,48.00
2022-10-10T07:36:25.643Z,48.10
2022-10-10T07:38:54.998Z,48.10
2022-10-10T07:41:25.016Z,48.10
2022-10-10T07:43:56.873Z,48.10
2022-10-10T07:46:26.191Z,48.10
2022-10-10T07:48:54.908Z,48.30
2022-10-10T07:51:23.527Z,48.40
2022-10-10T07:53:53.594Z,48.50
2022-10-10T07:56:22.485Z,48.70
2022-10-10T07:58:52.618Z,48.80
2022-10-10T08:01:21.882Z,49.00
2022-10-10T08:03:50.585Z,49.00
2022-10-10T08:06:19.590Z,49.20
2022-10-10T08:08:52.015Z,49.30
2022-10-10T08:11:22.070Z,49.50
2022-10-10T08:13:52.845Z,49.60
2022-10-10T08:16:21.625Z,50.10
2022-10-10T08:18:50.418Z,50.30
2022-10-10T08:21:19.913Z,50.30
2022-10-10T08:23:48.708Z,50.40
2022-10-10T08:26:19.934Z,50.80
2022-10-10T08:28:49.368Z,50.80
2022-10-10T08:31:21.745Z,50.90
2022-10-10T08:33:52.617Z,51.00
2022-10-10T08:36:24.136Z,50.90
2022-10-10T08:38:57.481Z,50.90
2022-10-10T08:41:37.374Z,51.00
2022-10-10T08:44:14.450Z,51.10
2022-10-10T08:46:49.127Z,51.00
2022-10-10T08:49:25.534Z,50.90
2022-10-10T08:52:02.840Z,50.90
2022-10-10T08:54:33.743Z,50.90
2022-10-10T08:57:07.185Z,50.80
2022-10-10T08:59:40.368Z,51.20
2022-10-10T09:02:54.698Z,51.50
2022-10-10T09:05:42.589Z,51.80
2022-10-10T09:08:31.617Z,51.70
2022-10-10T09:11:09.439Z,52.10
2022-10-10T09:13:43.273Z,51.70
2022-10-10T09:16:23.635Z,51.90
2022-10-10T09:19:05.258Z,51.90
2022-10-10T09:21:37.779Z,52.40
2022-10-10T09:24:12.409Z,52.40
2022-10-10T09:26:47.425Z,52.50
2022-10-10T09:29:30.076Z,52.50
2022-10-10T09:32:05.597Z,52.70
2022-10-10T09:34:41.088Z,52.50
2022-10-10T09:37:24.598Z,52.40
2022-10-10T09:40:16.562Z,52.40
2022-10-10T09:42:47.464Z,52.60
2022-10-10T09:45:30.149Z,52.00
2022-10-10T09:47:59.364Z,52.10
2022-10-10T09:50:29.564Z,52.00
2022-10-10T09:52:59.584Z,51.80
2022-10-10T09:55:33.583Z,52.10
2022-10-10T09:58:13.443Z,52.20
2022-10-10T10:00:42.116Z,52.20
2022-10-10T10:03:17.489Z,51.80
2022-10-10T10:05:56.053Z,52.00
2022-10-10T10:08:31.286Z,52.00
2022-10-10T10:11:01.379Z,51.70
2022-10-10T10:13:33.875Z,51.70
2022-10-10T10:16:07.746Z,51.80
2022-10-10T10:18:42.426Z,51.70
2022-10-10T10:21:23.347Z,51.90
2022-10-10T10:23:59.655Z,51.90
2022-10-10T10:26:34.549Z,52.10
2022-10-10T10:29:03.173Z,52.00
2022-10-10T10:31:50.967Z,51.90
2022-10-10T10:35:02.715Z,52.20
2022-10-10T10:37:48.493Z,52.30
2022-10-10T10:40:32.369Z,52.20
2022-10-10T10:44:00.809Z,52.50
2022-10-10T10:46:43.794Z,52.20
2022-10-10T10:49:18.796Z,52.50
2022-10-10T10:52:15.251Z,53.20
2022-10-10T10:55:03.458Z,52.80
2022-10-10T10:58:04.872Z,52.90
2022-10-10T11:01:21.155Z,52.90
2022-10-10T11:05:18.126Z,52.90
2022-10-10T11:07:19.345Z,53.10
2022-10-10T11:09:58.164Z,53.40
2022-10-10T11:12:47.193Z,53.20
2022-10-10T11:15:22.183Z,53.30
2022-10-10T11:17:58.217Z,53.20
2022-10-10T11:20:32.327Z,53.40
2022-10-10T11:23:09.258Z,53.50
2022-10-10T11:25:46.629Z,53.60
2022-10-10T11:28:19.311Z,53.80
2022-10-10T11:30:52.601Z,54.00
2022-10-10T11:33:25.997Z,53.80
2022-10-10T11:36:01.523Z,53.80
2022-10-10T11:38:36.642Z,53.60
2022-10-10T11:41:14.713Z,53.80
2022-10-10T11:43:50.521Z,53.90
2022-10-10T11:46:29.407Z,53.90
2022-10-10T11:49:08.132Z,53.90
2022-10-10T11:51:46.478Z,54.00
2022-10-10T11:54:30.394Z,54.00
2022-10-10T11:57:06.699Z,54.00
2022-10-10T11:59:44.965Z,54.00
2022-10-10T12:02:22.320Z,54.20
2022-10-10T12:04:53.820Z,54.30
2022-10-10T12:07:29.478Z,53.90
2022-10-10T12:10:03.749Z,54.00
2022-10-10T12:12:38.957Z,54.10
2022-10-10T12:15:11.097Z,54.00
2022-10-10T12:17:44.749Z,54.10
2022-10-10T12:20:34.011Z,54.10
2022-10-10T12:23:26.030Z,54.20
2022-10-10T12:25:54.636Z,54.30
2022-10-10T12:28:36.144Z,53.90
2022-10-10T12:31:30.165Z,54.10
2022-10-10T12:34:16.892Z,54.30
2022-10-10T12:36:59.067Z,54.20
2022-10-10T12:39:40.366Z,54.00
2022-10-10T12:42:35.809Z,54.30
2022-10-10T12:45:58.546Z,54.10
2022-10-10T12:48:28.019Z,54.10
2022-10-10T12:51:02.170Z,53.50
2022-10-10T12:53:34.619Z,53.40
2022-10-10T12:56:04.752Z,53.60
2022-10-10T12:58:38.384Z,53.40
2022-10-10T13:01:24.561Z,53.40
2022-10-10T13:03:55.744Z,53.60
2022-10-10T13:06:35.847Z,53.40
2022-10-10T13:09:10.782Z,53.60
2022-10-10T13:12:02.340Z,53.60
2022-10-10T13:14:41.957Z,53.60
2022-10-10T13:17:27.771Z,53.60
2022-10-10T13:19:58.804Z,53.60
2022-10-10T13:22:29.157Z,53.20
2022-10-10T13:25:01.250Z,53.30
2022-10-10T13:27:35.282Z,53.50
2022-10-10T13:30:06.406Z,53.40
2022-10-10T13:32:37.425Z,53.40
2022-10-10T13:35:14.735Z,53.50
2022-10-10T13:37:46.129Z,53.50
2022-10-10T13:40:17.021Z,53.60
2022-10-10T13:42:48.339Z,53.60
2022-10-10T13:45:38.760Z,53.70
2022-10-10T13:48:29.101Z,53.80
2022-10-10T13:51:10.810Z,53.80
2022-10-10T13:53:54.095Z,53.80
2022-10-10T13:56:28.199Z,53.60
2022-10-10T13:59:00.274Z,53.60
2022-10-10T14:01:39.140Z,53.50
2022-10-10T14:04:21.341Z,54.00
2022-10-10T14:06:58.506Z,53.80
2022-10-10T14:09:32.513Z,53.80
2022-10-10T14:12:04.193Z,53.70
2022-10-10T14:14:44.736Z,53.80
2022-10-10T14:17:19.153Z,53.80
2022-10-10T14:19:51.287Z,53.60
2022-10-10T14:22:21.210Z,53.90
2022-10-10T14:24:50.754Z,53.70
2022-10-10T14:27:27.762Z,53.70
2022-10-10T14:29:58.470Z,54.20
2022-10-10T14:32:27.079Z,54.00
2022-10-10T14:34:57.565Z,53.90
2022-10-10T14:37:29.072Z,53.90
2022-10-10T14:39:58.158Z,53.90
2022-10-10T14:42:27.817Z,53.90
2022-10-10T14:44:56.557Z,54.10
2022-10-10T14:47:26.544Z,54.00
2022-10-10T14:49:58.013Z,53.90
2022-10-10T14:52:26.651Z,54.00
2022-10-10T14:54:55.305Z,53.90
2022-10-10T14:57:23.904Z,54.00
2022-10-10T14:59:52.533Z,54.00
2022-10-10T15:02:22.970Z,54.60
2022-10-10T15:04:51.992Z,54.50
2022-10-10T15:07:22.029Z,54.50
2022-10-10T15:10:26.082Z,54.50
2022-10-10T15:12:42.148Z,55.30
2022-10-10T15:15:12.782Z,54.70
2022-10-10T15:17:42.132Z,54.80
2022-10-10T15:20:13.527Z,54.70
2022-10-10T15:22:45.315Z,54.80
2022-10-10T15:25:13.955Z,54.80
2022-10-10T15:27:42.574Z,54.80
2022-10-10T15:30:12.669Z,54.90
2022-10-10T15:32:42.428Z,54.90
2022-10-10T15:35:16.497Z,55.00
2022-10-10T15:37:47.627Z,55.60
2022-10-10T15:40:19.831Z,54.90
2022-10-10T15:42:49.322Z,54.80
2022-10-10T15:45:31.206Z,54.80
2022-10-10T15:48:07.383Z,54.80
2022-10-10T15:50:39.297Z,54.80
2022-10-10T15:53:09.761Z,54.80
2022-10-10T15:55:43.550Z,54.90
2022-10-10T15:58:12.460Z,55.30
2022-10-10T16:00:42.612Z,55.00
2022-10-10T16:03:12.109Z,55.00
2022-10-10T16:05:43.204Z,55.10
2022-10-10T16:08:13.444Z,55.10
2022-10-10T16:10:44.482Z,55.20
2022-10-10T16:13:13.540Z,55.10
2022-10-10T16:15:42.352Z,55.00
2022-10-10T16:18:11.132Z,55.10
2022-10-10T16:20:40.067Z,55.00
2022-10-10T16:23:08.630Z,55.20
2022-10-10T16:25:39.237Z,55.10
2022-10-10T16:28:08.082Z,55.10
2022-10-10T16:30:36.807Z,55.00
2022-10-10T16:33:05.595Z,55.10
2022-10-10T16:35:38.852Z,55.10
2022-10-10T16:38:07.443Z,55.10
2022-10-10T16:40:38.604Z,55.00
2022-10-10T16:43:07.388Z,55.00
2022-10-10T16:45:36.195Z,54.90
2022-10-10T16:48:04.941Z,54.90
2022-10-10T16:50:33.687Z,54.80
2022-10-10T16:53:02.411Z,54.70
2022-10-10T16:55:31.008Z,54.70
2022-10-10T16:58:01.001Z,54.70
2022-10-10T17:00:29.799Z,54.50
2022-10-10T17:02:58.423Z,54.60
2022-10-10T17:05:27.128Z,54.50
2022-10-10T17:07:55.916Z,54.60
2022-10-10T17:10:24.580Z,54.40
2022-10-10T17:12:53.181Z,54.50
2022-10-10T17:15:23.184Z,54.40
2022-10-10T17:17:51.809Z,54.40
2022-10-10T17:20:20.707Z,54.30
2022-10-10T17:22:49.386Z,54.30
2022-10-10T17:25:18.153Z,54.10
2022-10-10T17:27:46.969Z,54.20
2022-10-10T17:30:15.742Z,54.90
2022-10-10T17:32:45.719Z,54.20
2022-10-10T17:35:14.336Z,54.00
2022-10-10T17:37:42.989Z,54.00
2022-10-10T17:40:12.290Z,54.10
2022-10-10T17:42:43.391Z,54.10
2022-10-10T17:45:12.281Z,53.90
2022-10-10T17:47:41.410Z,53.90
2022-10-10T17:50:13.353Z,53.90
2022-10-10T17:52:42.007Z,54.10
2022-10-10T17:55:10.905Z,53.90
2022-10-10T17:57:39.569Z,54.10
2022-10-10T18:00:09.943Z,54.10
2022-10-10T18:02:57.263Z,54.30
2022-10-10T18:05:45.749Z,54.50
2022-10-10T18:08:33.242Z,54.40
2022-10-10T18:11:23.430Z,54.70
2022-10-10T18:14:10.927Z,55.50
2022-10-10T18:16:58.220Z,56.10
2022-10-10T18:19:45.489Z,56.30
2022-10-10T18:22:34.420Z,56.20
2022-10-10T18:25:25.093Z,56.50
2022-10-10T18:28:12.840Z,56.30
2022-10-10T18:31:00.838Z,56.20
2022-10-10T18:33:48.908Z,56.10
2022-10-10T18:36:39.263Z,56.10
2022-10-10T18:39:32.937Z,56.10
2022-10-10T18:42:20.534Z,56.10
2022-10-10T18:45:09.337Z,56.10
2022-10-10T18:47:56.421Z,56.10
2022-10-10T18:50:43.947Z,56.10
2022-10-10T18:53:31.476Z,56.30
2022-10-10T18:56:24.685Z,56.60
2022-10-10T18:59:15.653Z,56.80
2022-10-10T19:02:03.227Z,56.60
2022-10-10T19:04:50.935Z,56.60
2022-10-10T19:07:38.688Z,56.40
2022-10-10T19:10:26.019Z,56.50
2022-10-10T19:13:15.595Z,56.60
2022-10-10T19:16:06.261Z,56.50
2022-10-10T19:18:58.078Z,56.70
2022-10-10T19:21:48.078Z,56.50
2022-10-10T19:24:35.584Z,56.50
2022-10-10T19:27:22.940Z,56.50
2022-10-10T19:30:14.018Z,56.50
2022-10-10T19:33:01.285Z,56.90
2022-10-10T19:35:51.431Z,56.60
2022-10-10T19:38:41.984Z,57.20
2022-10-10T19:41:30.294Z,57.30
2022-10-10T19:44:17.807Z,57.20
2022-10-10T19:47:06.385Z,56.50
2022-10-10T19:49:53.832Z,56.80
2022-10-10T19:52:40.934Z,56.80
2022-10-10T19:55:28.058Z,56.70
2022-10-10T19:58:15.464Z,56.60
2022-10-10T20:01:07.215Z,56.60
2022-10-10T20:03:56.040Z,56.80
2022-10-10T20:06:43.650Z,57.30
2022-10-10T20:09:30.986Z,57.10
2022-10-10T20:12:18.594Z,57.20
2022-10-10T20:15:07.311Z,57.10
2022-10-10T20:17:54.802Z,57.10
2022-10-10T20:20:44.498Z,57.80
2022-10-10T20:23:31.581Z,57.40
2022-10-10T20:26:21.810Z,57.30
2022-10-10T20:29:09.976Z,57.50
2022-10-10T20:31:57.370Z,57.30
2022-10-10T20:34:44.789Z,57.30
2022-10-10T20:37:35.537Z,57.30
2022-10-10T20:40:23.073Z,57.90
2022-10-10T20:43:11.324Z,57.40
2022-10-10T20:46:05.221Z,57.40
2022-10-10T20:48:55.102Z,57.30
2022-10-10T20:51:48.063Z,57.40
2022-10-10T20:54:37.380Z,57.20
2022-10-10T20:57:24.719Z,57.20
2022-10-10T21:00:13.799Z,57.20
2022-10-10T21:03:01.211Z,57.30
2022-10-10T21:05:48.900Z,57.30
2022-10-10T21:08:36.176Z,57.40
2022-10-10T21:11:25.549Z,57.60
2022-10-10T21:14:14.144Z,57.90
2022-10-10T21:17:01.557Z,57.80
2022-10-10T21:19:48.739Z,57.90
2022-10-10T21:22:35.882Z,57.90
2022-10-10T21:25:23.303Z,57.80
2022-10-10T21:28:11.998Z,57.60
2022-10-10T21:30:59.081Z,57.70
2022-10-10T21:33:48.023Z,57.60
2022-10-10T21:36:37.275Z,57.50
2022-10-10T21:39:24.647Z,57.60
2022-10-10T21:42:12.079Z,57.80
2022-10-10T21:45:00.745Z,57.70
2022-10-10T21:47:48.020Z,57.60
2022-10-10T21:50:35.573Z,57.50
2022-10-10T21:53:22.644Z,57.70
2022-10-10T21:56:11.231Z,57.70
2022-10-10T21:59:01.271Z,57.80
2022-10-10T22:01:50.255Z,57.70
2022-10-10T22:04:37.443Z,57.90
2022-10-10T22:07:24.830Z,57.80
2022-10-10T22:10:16.775Z,57.90
2022-10-10T22:13:04.902Z,57.80
2022-10-10T22:15:52.307Z,57.60
2022-10-10T22:18:41.673Z,57.60
2022-10-10T22:21:31.976Z,57.70
2022-10-10T22:24:19.470Z,58.00
2022-10-10T22:27:06.884Z,58.00
2022-10-10T22:29:55.205Z,58.00
2022-10-10T22:32:42.224Z,57.90
2022-10-10T22:35:30.737Z,57.90
2022-10-10T22:38:18.213Z,58.00
2022-10-10T22:41:05.948Z,57.90
2022-10-10T22:43:53.346Z,57.90
2022-10-10T22:46:40.367Z,57.90
2022-10-10T22:49:27.796Z,57.90
2022-10-10T22:52:16.301Z,57.90
2022-10-10T22:55:03.661Z,57.90
2022-10-10T22:57:51.106Z,57.80
2022-10-10T23:00:38.558Z,57.80
2022-10-10T23:03:25.689Z,57.80
2022-10-10T23:06:13.350Z,57.80
2022-10-10T23:09:01.830Z,57.90
2022-10-10T23:11:48.973Z,57.90
2022-10-10T23:14:36.029Z,58.20
2022-10-10T23:17:23.428Z,58.30
2022-10-10T23:20:11.945Z,58.30
2022-10-10T23:22:59.598Z,58.20
2022-10-10T23:25:48.974Z,58.20
2022-10-10T23:28:36.215Z,58.20
2022-10-10T23:31:23.705Z,58.10
2022-10-10T23:34:10.840Z,58.00
2022-10-10T23:36:57.944Z,58.10
2022-10-10T23:39:45.240Z,58.00
2022-10-10T23:42:34.619Z,58.00
2022-10-10T23:45:22.453Z,58.40
2022-10-10T23:48:09.531Z,58.20
2022-10-10T23:50:56.666Z,58.10
2022-10-10T23:53:43.913Z,58.00
2022-10-10T23:56:31.061Z,57.90
2022-10-10T23:59:19.704Z,58.30
